White Fox, Canada
Current Conditions -  °F | °C
As of 1:00 AM on Saturday 25 Oct 2014 (Local Time) from CYBU Reporting Station
Broken Clouds Broken Clouds  
Wind Chill: 35°   Ceiling: 5500
Heat Index: 41°   Visibility: 9mi
Dew Point: 32°   Wind: 9mph
Humidity: 70%   Direction: 230°SW
Pressure: 29.85"   Gusts: NA
Location:  53.45°N, 104.08°W
Report Text: CYBU 250700Z AUTO 23008KT 9SM BKN055 05/M00 A2985 RMK SLP123
Loading
Personal Weather Stations






























Interactive Weather Map
Tropical Storm Tracking
New forecast layout! Learn more

10-Day Weather Forecast

Advertisements
Track Severe Weather on mobile